sensor_id;sensor_type;location;lat;lon;timestamp;P1;durP1;ratioP1;P2;durP2;ratioP2
7561;SDS011;3822;48.784;9.174;2022-12-05T00:01:25;19.97;;;10.60;;
7561;SDS011;3822;48.784;9.174;2022-12-05T00:04:09;20.07;;;10.60;;
7561;SDS011;3822;48.784;9.174;2022-12-05T00:06:38;21.00;;;11.13;;
7561;SDS011;3822;48.784;9.174;2022-12-05T00:09:07;22.10;;;12.00;;
7561;SDS011;3822;48.784;9.174;2022-12-05T00:11:37;18.73;;;9.93;;
7561;SDS011;3822;48.784;9.174;2022-12-05T00:14:06;20.77;;;11.17;;
7561;SDS011;3822;48.784;9.174;2022-12-05T00:16:35;21.90;;;10.23;;
7561;SDS011;3822;48.784;9.174;2022-12-05T00:19:05;19.30;;;10.00;;
7561;SDS011;3822;48.784;9.174;2022-12-05T00:21:39;19.77;;;9.80;;
7561;SDS011;3822;48.784;9.174;2022-12-05T00:24:07;20.63;;;10.70;;
7561;SDS011;3822;48.784;9.174;2022-12-05T00:26:41;21.10;;;10.20;;
7561;SDS011;3822;48.784;9.174;2022-12-05T00:29:08;19.10;;;9.20;;
7561;SDS011;3822;48.784;9.174;2022-12-05T00:31:34;20.80;;;11.87;;
7561;SDS011;3822;48.784;9.174;2022-12-05T00:34:01;18.20;;;9.47;;
7561;SDS011;3822;48.784;9.174;2022-12-05T00:36:51;18.00;;;9.53;;
7561;SDS011;3822;48.784;9.174;2022-12-05T00:39:18;20.10;;;10.37;;
7561;SDS011;3822;48.784;9.174;2022-12-05T00:41:44;28.80;;;11.50;;
7561;SDS011;3822;48.784;9.174;2022-12-05T00:44:11;21.53;;;11.33;;
7561;SDS011;3822;48.784;9.174;2022-12-05T00:46:38;21.67;;;9.37;;
7561;SDS011;3822;48.784;9.174;2022-12-05T00:49:05;23.30;;;11.67;;
7561;SDS011;3822;48.784;9.174;2022-12-05T00:51:34;20.67;;;11.70;;
7561;SDS011;3822;48.784;9.174;2022-12-05T00:54:04;17.63;;;9.50;;
7561;SDS011;3822;48.784;9.174;2022-12-05T00:56:35;18.40;;;10.07;;
7561;SDS011;3822;48.784;9.174;2022-12-05T00:59:05;19.50;;;10.40;;
7561;SDS011;3822;48.784;9.174;2022-12-05T01:01:34;17.53;;;9.87;;
7561;SDS011;3822;48.784;9.174;2022-12-05T01:04:10;18.63;;;9.77;;
7561;SDS011;3822;48.784;9.174;2022-12-05T01:06:49;16.20;;;8.77;;
7561;SDS011;3822;48.784;9.174;2022-12-05T01:09:19;16.70;;;8.83;;
7561;SDS011;3822;48.784;9.174;2022-12-05T01:11:46;18.10;;;9.93;;
7561;SDS011;3822;48.784;9.174;2022-12-05T01:14:15;17.70;;;9.77;;
7561;SDS011;3822;48.784;9.174;2022-12-05T01:16:44;15.80;;;8.47;;
7561;SDS011;3822;48.784;9.174;2022-12-05T01:19:15;16.13;;;8.73;;
7561;SDS011;3822;48.784;9.174;2022-12-05T01:21:48;18.50;;;9.70;;
7561;SDS011;3822;48.784;9.174;2022-12-05T01:24:16;15.87;;;8.90;;
7561;SDS011;3822;48.784;9.174;2022-12-05T01:26:43;15.93;;;9.30;;
7561;SDS011;3822;48.784;9.174;2022-12-05T01:29:11;17.97;;;9.40;;
7561;SDS011;3822;48.784;9.174;2022-12-05T01:31:40;18.37;;;9.63;;
7561;SDS011;3822;48.784;9.174;2022-12-05T01:34:09;16.87;;;8.83;;
7561;SDS011;3822;48.784;9.174;2022-12-05T01:36:38;17.43;;;8.97;;
7561;SDS011;3822;48.784;9.174;2022-12-05T01:39:06;20.27;;;9.90;;
7561;SDS011;3822;48.784;9.174;2022-12-05T01:41:35;18.03;;;9.27;;
7561;SDS011;3822;48.784;9.174;2022-12-05T01:44:06;15.33;;;9.07;;
7561;SDS011;3822;48.784;9.174;2022-12-05T01:46:37;16.10;;;8.03;;
7561;SDS011;3822;48.784;9.174;2022-12-05T01:49:12;14.07;;;8.27;;
7561;SDS011;3822;48.784;9.174;2022-12-05T01:51:46;16.23;;;8.10;;
7561;SDS011;3822;48.784;9.174;2022-12-05T01:54:20;19.37;;;8.90;;
7561;SDS011;3822;48.784;9.174;2022-12-05T01:56:49;16.47;;;9.43;;
7561;SDS011;3822;48.784;9.174;2022-12-05T01:59:21;17.63;;;7.97;;
7561;SDS011;3822;48.784;9.174;2022-12-05T02:01:48;13.40;;;7.50;;
7561;SDS011;3822;48.784;9.174;2022-12-05T02:04:15;17.60;;;8.03;;
7561;SDS011;3822;48.784;9.174;2022-12-05T02:06:42;15.70;;;8.30;;
7561;SDS011;3822;48.784;9.174;2022-12-05T02:09:09;14.20;;;7.80;;
7561;SDS011;3822;48.784;9.174;2022-12-05T02:11:35;12.60;;;8.27;;
7561;SDS011;3822;48.784;9.174;2022-12-05T02:14:58;16.17;;;7.30;;
7561;SDS011;3822;48.784;9.174;2022-12-05T02:18:19;18.27;;;8.50;;
7561;SDS011;3822;48.784;9.174;2022-12-05T02:21:19;14.30;;;8.60;;
7561;SDS011;3822;48.784;9.174;2022-12-05T02:30:16;14.07;;;7.30;;
7561;SDS011;3822;48.784;9.174;2022-12-05T02:32:56;11.20;;;6.47;;
7561;SDS011;3822;48.784;9.174;2022-12-05T02:35:45;16.73;;;9.30;;
7561;SDS011;3822;48.784;9.174;2022-12-05T02:38:23;15.60;;;8.10;;
7561;SDS011;3822;48.784;9.174;2022-12-05T02:46:47;16.23;;;8.30;;
7561;SDS011;3822;48.784;9.174;2022-12-05T02:49:21;18.77;;;9.00;;
7561;SDS011;3822;48.784;9.174;2022-12-05T02:51:52;17.23;;;9.17;;
7561;SDS011;3822;48.784;9.174;2022-12-05T02:54:23;20.10;;;8.90;;
7561;SDS011;3822;48.784;9.174;2022-12-05T02:56:52;17.20;;;8.60;;
7561;SDS011;3822;48.784;9.174;2022-12-05T02:59:21;12.87;;;7.87;;
7561;SDS011;3822;48.784;9.174;2022-12-05T03:01:47;21.50;;;9.20;;
7561;SDS011;3822;48.784;9.174;2022-12-05T03:04:14;19.07;;;9.20;;
7561;SDS011;3822;48.784;9.174;2022-12-05T03:06:47;20.00;;;8.87;;
7561;SDS011;3822;48.784;9.174;2022-12-05T03:09:24;18.03;;;8.53;;
7561;SDS011;3822;48.784;9.174;2022-12-05T03:17:29;17.63;;;9.53;;
7561;SDS011;3822;48.784;9.174;2022-12-05T03:22:32;16.30;;;8.00;;
7561;SDS011;3822;48.784;9.174;2022-12-05T03:25:11;13.73;;;7.67;;
7561;SDS011;3822;48.784;9.174;2022-12-05T03:27:59;17.73;;;9.60;;
7561;SDS011;3822;48.784;9.174;2022-12-05T03:30:32;17.13;;;8.33;;
7561;SDS011;3822;48.784;9.174;2022-12-05T03:38:30;18.07;;;7.97;;
7561;SDS011;3822;48.784;9.174;2022-12-05T03:41:48;21.50;;;10.30;;
7561;SDS011;3822;48.784;9.174;2022-12-05T03:44:24;20.57;;;9.37;;
7561;SDS011;3822;48.784;9.174;2022-12-05T03:50:12;17.87;;;9.37;;
7561;SDS011;3822;48.784;9.174;2022-12-05T03:52:51;17.93;;;9.30;;
7561;SDS011;3822;48.784;9.174;2022-12-05T03:55:24;20.03;;;8.87;;
7561;SDS011;3822;48.784;9.174;2022-12-05T03:57:59;20.30;;;8.93;;
7561;SDS011;3822;48.784;9.174;2022-12-05T04:00:33;18.23;;;9.57;;
7561;SDS011;3822;48.784;9.174;2022-12-05T04:03:13;17.23;;;9.10;;
7561;SDS011;3822;48.784;9.174;2022-12-05T04:05:49;15.13;;;9.50;;
7561;SDS011;3822;48.784;9.174;2022-12-05T04:08:34;18.80;;;8.93;;
7561;SDS011;3822;48.784;9.174;2022-12-05T04:11:12;19.13;;;9.20;;
7561;SDS011;3822;48.784;9.174;2022-12-05T04:13:49;16.23;;;8.77;;
7561;SDS011;3822;48.784;9.174;2022-12-05T04:16:23;19.57;;;9.30;;
7561;SDS011;3822;48.784;9.174;2022-12-05T04:19:39;18.90;;;9.03;;
7561;SDS011;3822;48.784;9.174;2022-12-05T04:22:39;19.10;;;9.40;;
7561;SDS011;3822;48.784;9.174;2022-12-05T04:25:07;17.03;;;8.97;;
7561;SDS011;3822;48.784;9.174;2022-12-05T04:28:04;15.07;;;8.13;;
7561;SDS011;3822;48.784;9.174;2022-12-05T04:31:02;16.30;;;8.30;;
7561;SDS011;3822;48.784;9.174;2022-12-05T04:33:47;18.90;;;8.40;;
7561;SDS011;3822;48.784;9.174;2022-12-05T04:36:32;17.17;;;8.20;;
7561;SDS011;3822;48.784;9.174;2022-12-05T04:39:05;17.17;;;8.43;;
7561;SDS011;3822;48.784;9.174;2022-12-05T04:42:11;15.67;;;9.13;;
7561;SDS011;3822;48.784;9.174;2022-12-05T04:44:33;17.77;;;7.63;;
7561;SDS011;3822;48.784;9.174;2022-12-05T04:47:06;18.37;;;8.40;;
7561;SDS011;3822;48.784;9.174;2022-12-05T04:49:34;13.67;;;7.50;;
7561;SDS011;3822;48.784;9.174;2022-12-05T04:52:04;18.83;;;9.20;;
7561;SDS011;3822;48.784;9.174;2022-12-05T04:54:38;19.90;;;10.40;;
7561;SDS011;3822;48.784;9.174;2022-12-05T04:59:44;16.57;;;8.70;;
7561;SDS011;3822;48.784;9.174;2022-12-05T05:02:12;17.43;;;9.37;;
7561;SDS011;3822;48.784;9.174;2022-12-05T05:04:44;15.63;;;8.90;;
7561;SDS011;3822;48.784;9.174;2022-12-05T05:07:16;16.47;;;9.03;;
7561;SDS011;3822;48.784;9.174;2022-12-05T05:09:43;14.50;;;8.30;;
7561;SDS011;3822;48.784;9.174;2022-12-05T05:12:11;17.70;;;9.70;;
7561;SDS011;3822;48.784;9.174;2022-12-05T05:14:38;19.10;;;9.30;;
7561;SDS011;3822;48.784;9.174;2022-12-05T05:17:05;14.10;;;7.77;;
7561;SDS011;3822;48.784;9.174;2022-12-05T05:19:32;13.10;;;7.83;;
7561;SDS011;3822;48.784;9.174;2022-12-05T05:21:58;12.57;;;7.30;;
7561;SDS011;3822;48.784;9.174;2022-12-05T05:24:25;17.27;;;8.80;;
7561;SDS011;3822;48.784;9.174;2022-12-05T05:26:52;16.60;;;7.97;;
7561;SDS011;3822;48.784;9.174;2022-12-05T05:29:18;14.23;;;7.60;;
7561;SDS011;3822;48.784;9.174;2022-12-05T05:31:45;16.30;;;8.27;;
7561;SDS011;3822;48.784;9.174;2022-12-05T05:34:13;14.60;;;8.33;;
7561;SDS011;3822;48.784;9.174;2022-12-05T05:36:40;16.30;;;7.63;;
7561;SDS011;3822;48.784;9.174;2022-12-05T05:39:10;14.87;;;7.80;;
7561;SDS011;3822;48.784;9.174;2022-12-05T05:41:40;13.37;;;8.33;;
7561;SDS011;3822;48.784;9.174;2022-12-05T05:44:07;13.00;;;7.50;;
7561;SDS011;3822;48.784;9.174;2022-12-05T05:46:34;17.03;;;9.27;;
7561;SDS011;3822;48.784;9.174;2022-12-05T05:49:01;14.00;;;8.50;;
7561;SDS011;3822;48.784;9.174;2022-12-05T05:51:28;12.40;;;7.30;;
7561;SDS011;3822;48.784;9.174;2022-12-05T05:53:55;18.90;;;8.60;;
7561;SDS011;3822;48.784;9.174;2022-12-05T05:56:23;15.63;;;8.97;;
7561;SDS011;3822;48.784;9.174;2022-12-05T05:58:57;15.90;;;8.47;;
7561;SDS011;3822;48.784;9.174;2022-12-05T06:01:26;15.57;;;7.77;;
7561;SDS011;3822;48.784;9.174;2022-12-05T06:03:54;17.33;;;7.53;;
7561;SDS011;3822;48.784;9.174;2022-12-05T06:06:21;14.97;;;8.63;;
7561;SDS011;3822;48.784;9.174;2022-12-05T06:08:48;12.57;;;7.13;;
7561;SDS011;3822;48.784;9.174;2022-12-05T06:16:46;15.63;;;8.10;;
7561;SDS011;3822;48.784;9.174;2022-12-05T06:19:13;12.90;;;7.70;;
7561;SDS011;3822;48.784;9.174;2022-12-05T06:21:39;14.40;;;7.70;;
7561;SDS011;3822;48.784;9.174;2022-12-05T06:24:06;16.63;;;8.40;;
7561;SDS011;3822;48.784;9.174;2022-12-05T06:26:33;15.33;;;8.63;;
7561;SDS011;3822;48.784;9.174;2022-12-05T06:28:59;11.07;;;6.00;;
7561;SDS011;3822;48.784;9.174;2022-12-05T06:31:26;14.27;;;7.87;;
7561;SDS011;3822;48.784;9.174;2022-12-05T06:33:58;14.23;;;7.77;;
7561;SDS011;3822;48.784;9.174;2022-12-05T06:36:29;12.20;;;7.50;;
7561;SDS011;3822;48.784;9.174;2022-12-05T06:38:56;15.30;;;8.33;;
7561;SDS011;3822;48.784;9.174;2022-12-05T06:41:24;16.27;;;8.00;;
7561;SDS011;3822;48.784;9.174;2022-12-05T06:43:52;16.17;;;7.30;;
7561;SDS011;3822;48.784;9.174;2022-12-05T06:46:20;15.10;;;8.10;;
7561;SDS011;3822;48.784;9.174;2022-12-05T06:48:47;11.57;;;6.80;;
7561;SDS011;3822;48.784;9.174;2022-12-05T06:51:14;10.70;;;6.80;;
7561;SDS011;3822;48.784;9.174;2022-12-05T06:53:42;13.90;;;7.20;;
7561;SDS011;3822;48.784;9.174;2022-12-05T06:56:10;14.60;;;6.87;;
7561;SDS011;3822;48.784;9.174;2022-12-05T06:58:39;15.20;;;7.93;;
7561;SDS011;3822;48.784;9.174;2022-12-05T07:01:18;14.07;;;7.50;;
7561;SDS011;3822;48.784;9.174;2022-12-05T07:04:11;15.73;;;8.53;;
7561;SDS011;3822;48.784;9.174;2022-12-05T07:06:45;15.43;;;8.77;;
7561;SDS011;3822;48.784;9.174;2022-12-05T07:09:13;13.90;;;7.70;;
7561;SDS011;3822;48.784;9.174;2022-12-05T07:11:41;11.87;;;6.70;;
7561;SDS011;3822;48.784;9.174;2022-12-05T07:14:07;14.57;;;7.10;;
7561;SDS011;3822;48.784;9.174;2022-12-05T07:16:34;13.20;;;7.63;;
7561;SDS011;3822;48.784;9.174;2022-12-05T07:19:01;12.50;;;7.80;;
7561;SDS011;3822;48.784;9.174;2022-12-05T07:21:27;11.53;;;6.83;;
7561;SDS011;3822;48.784;9.174;2022-12-05T07:23:53;14.77;;;8.00;;
7561;SDS011;3822;48.784;9.174;2022-12-05T07:26:21;10.80;;;6.13;;
7561;SDS011;3822;48.784;9.174;2022-12-05T07:28:49;15.00;;;8.07;;
7561;SDS011;3822;48.784;9.174;2022-12-05T07:31:17;16.13;;;8.00;;
7561;SDS011;3822;48.784;9.174;2022-12-05T07:33:47;13.67;;;8.07;;
7561;SDS011;3822;48.784;9.174;2022-12-05T07:36:17;13.87;;;7.63;;
7561;SDS011;3822;48.784;9.174;2022-12-05T07:38:45;13.70;;;7.10;;
7561;SDS011;3822;48.784;9.174;2022-12-05T07:41:18;10.80;;;6.00;;
7561;SDS011;3822;48.784;9.174;2022-12-05T07:43:47;15.03;;;7.63;;
7561;SDS011;3822;48.784;9.174;2022-12-05T07:46:15;14.83;;;8.13;;
7561;SDS011;3822;48.784;9.174;2022-12-05T07:48:42;11.50;;;7.13;;
7561;SDS011;3822;48.784;9.174;2022-12-05T07:51:08;15.60;;;8.30;;
7561;SDS011;3822;48.784;9.174;2022-12-05T07:53:35;12.37;;;7.13;;
7561;SDS011;3822;48.784;9.174;2022-12-05T07:56:04;12.03;;;7.43;;
7561;SDS011;3822;48.784;9.174;2022-12-05T07:58:33;12.40;;;6.50;;
7561;SDS011;3822;48.784;9.174;2022-12-05T08:03:38;13.17;;;7.77;;
7561;SDS011;3822;48.784;9.174;2022-12-05T08:06:09;9.47;;;6.50;;
7561;SDS011;3822;48.784;9.174;2022-12-05T08:08:41;12.80;;;6.40;;
7561;SDS011;3822;48.784;9.174;2022-12-05T08:11:12;9.13;;;6.50;;
7561;SDS011;3822;48.784;9.174;2022-12-05T08:13:43;11.17;;;6.00;;
7561;SDS011;3822;48.784;9.174;2022-12-05T08:16:13;11.17;;;6.60;;
7561;SDS011;3822;48.784;9.174;2022-12-05T08:18:45;10.27;;;6.37;;
7561;SDS011;3822;48.784;9.174;2022-12-05T08:21:13;10.33;;;5.77;;
7561;SDS011;3822;48.784;9.174;2022-12-05T08:23:42;9.60;;;5.93;;
7561;SDS011;3822;48.784;9.174;2022-12-05T08:26:11;10.10;;;5.33;;
7561;SDS011;3822;48.784;9.174;2022-12-05T08:28:41;9.40;;;5.73;;
7561;SDS011;3822;48.784;9.174;2022-12-05T08:31:09;9.50;;;5.70;;
7561;SDS011;3822;48.784;9.174;2022-12-05T08:33:40;8.60;;;5.47;;
7561;SDS011;3822;48.784;9.174;2022-12-05T08:36:09;10.77;;;6.30;;
7561;SDS011;3822;48.784;9.174;2022-12-05T08:38:40;10.80;;;5.85;;
7561;SDS011;3822;48.784;9.174;2022-12-05T08:41:08;12.50;;;7.07;;
7561;SDS011;3822;48.784;9.174;2022-12-05T08:43:37;11.90;;;6.80;;
7561;SDS011;3822;48.784;9.174;2022-12-05T08:46:04;7.60;;;4.93;;
7561;SDS011;3822;48.784;9.174;2022-12-05T08:48:32;9.40;;;6.33;;
7561;SDS011;3822;48.784;9.174;2022-12-05T08:51:03;14.23;;;8.40;;
7561;SDS011;3822;48.784;9.174;2022-12-05T08:53:34;12.20;;;6.70;;
7561;SDS011;3822;48.784;9.174;2022-12-05T08:56:03;8.50;;;5.50;;
7561;SDS011;3822;48.784;9.174;2022-12-05T08:58:31;11.70;;;6.43;;
7561;SDS011;3822;48.784;9.174;2022-12-05T09:01:18;10.40;;;5.53;;
7561;SDS011;3822;48.784;9.174;2022-12-05T09:03:46;12.37;;;5.70;;
7561;SDS011;3822;48.784;9.174;2022-12-05T09:06:17;9.23;;;6.10;;
7561;SDS011;3822;48.784;9.174;2022-12-05T09:08:46;11.87;;;6.63;;
7561;SDS011;3822;48.784;9.174;2022-12-05T09:11:15;13.03;;;6.13;;
7561;SDS011;3822;48.784;9.174;2022-12-05T09:13:46;7.07;;;5.10;;
7561;SDS011;3822;48.784;9.174;2022-12-05T09:16:15;8.90;;;6.03;;
7561;SDS011;3822;48.784;9.174;2022-12-05T09:18:48;9.07;;;5.30;;
7561;SDS011;3822;48.784;9.174;2022-12-05T09:21:18;9.20;;;5.33;;
7561;SDS011;3822;48.784;9.174;2022-12-05T09:23:47;9.43;;;5.63;;
7561;SDS011;3822;48.784;9.174;2022-12-05T09:26:15;11.67;;;5.93;;
7561;SDS011;3822;48.784;9.174;2022-12-05T09:28:44;7.80;;;5.47;;
7561;SDS011;3822;48.784;9.174;2022-12-05T09:31:16;10.20;;;6.27;;
7561;SDS011;3822;48.784;9.174;2022-12-05T09:33:48;9.30;;;5.67;;
7561;SDS011;3822;48.784;9.174;2022-12-05T09:36:18;11.23;;;6.07;;
7561;SDS011;3822;48.784;9.174;2022-12-05T09:38:47;9.17;;;6.10;;
7561;SDS011;3822;48.784;9.174;2022-12-05T09:50:40;8.10;;;5.63;;
7561;SDS011;3822;48.784;9.174;2022-12-05T09:53:29;9.00;;;5.90;;
7561;SDS011;3822;48.784;9.174;2022-12-05T09:56:26;10.23;;;6.40;;
7561;SDS011;3822;48.784;9.174;2022-12-05T09:58:55;8.03;;;5.40;;
7561;SDS011;3822;48.784;9.174;2022-12-05T10:01:30;8.33;;;5.10;;
7561;SDS011;3822;48.784;9.174;2022-12-05T10:07:02;11.87;;;6.20;;
7561;SDS011;3822;48.784;9.174;2022-12-05T10:12:57;9.17;;;5.60;;
7561;SDS011;3822;48.784;9.174;2022-12-05T10:15:43;6.93;;;5.40;;
7561;SDS011;3822;48.784;9.174;2022-12-05T10:18:36;10.40;;;5.40;;
7561;SDS011;3822;48.784;9.174;2022-12-05T10:26:21;7.63;;;4.97;;
7561;SDS011;3822;48.784;9.174;2022-12-05T10:28:56;9.03;;;5.63;;
7561;SDS011;3822;48.784;9.174;2022-12-05T10:31:37;10.13;;;5.67;;
7561;SDS011;3822;48.784;9.174;2022-12-05T10:37:01;7.17;;;4.50;;
7561;SDS011;3822;48.784;9.174;2022-12-05T10:39:47;6.97;;;4.73;;
7561;SDS011;3822;48.784;9.174;2022-12-05T10:42:28;6.50;;;4.40;;
7561;SDS011;3822;48.784;9.174;2022-12-05T10:45:04;5.87;;;4.27;;
7561;SDS011;3822;48.784;9.174;2022-12-05T10:47:38;6.53;;;4.37;;
7561;SDS011;3822;48.784;9.174;2022-12-05T10:52:50;5.63;;;4.20;;
7561;SDS011;3822;48.784;9.174;2022-12-05T10:55:18;5.40;;;3.97;;
7561;SDS011;3822;48.784;9.174;2022-12-05T10:58:08;5.77;;;4.17;;
7561;SDS011;3822;48.784;9.174;2022-12-05T11:00:41;7.00;;;3.93;;
7561;SDS011;3822;48.784;9.174;2022-12-05T11:03:30;6.77;;;4.60;;
7561;SDS011;3822;48.784;9.174;2022-12-05T11:06:17;5.37;;;3.67;;
7561;SDS011;3822;48.784;9.174;2022-12-05T11:08:57;5.67;;;4.23;;
7561;SDS011;3822;48.784;9.174;2022-12-05T11:11:39;6.93;;;4.27;;
7561;SDS011;3822;48.784;9.174;2022-12-05T11:14:08;5.43;;;4.20;;
7561;SDS011;3822;48.784;9.174;2022-12-05T11:16:55;3.97;;;3.57;;
7561;SDS011;3822;48.784;9.174;2022-12-05T11:19:31;4.40;;;3.20;;
7561;SDS011;3822;48.784;9.174;2022-12-05T11:22:04;5.63;;;3.27;;
7561;SDS011;3822;48.784;9.174;2022-12-05T11:24:33;4.07;;;3.03;;
7561;SDS011;3822;48.784;9.174;2022-12-05T11:29:41;4.53;;;3.50;;
7561;SDS011;3822;48.784;9.174;2022-12-05T11:32:17;4.23;;;3.10;;
7561;SDS011;3822;48.784;9.174;2022-12-05T11:34:49;5.23;;;2.97;;
7561;SDS011;3822;48.784;9.174;2022-12-05T11:37:55;5.20;;;3.47;;
7561;SDS011;3822;48.784;9.174;2022-12-05T11:40:26;4.93;;;3.20;;
7561;SDS011;3822;48.784;9.174;2022-12-05T11:52:06;3.53;;;2.77;;
7561;SDS011;3822;48.784;9.174;2022-12-05T12:01:10;4.47;;;3.07;;
7561;SDS011;3822;48.784;9.174;2022-12-05T12:03:33;4.53;;;2.90;;
7561;SDS011;3822;48.784;9.174;2022-12-05T12:06:26;4.47;;;3.00;;
7561;SDS011;3822;48.784;9.174;2022-12-05T12:11:48;2.93;;;2.40;;
7561;SDS011;3822;48.784;9.174;2022-12-05T12:14:58;3.70;;;2.50;;
7561;SDS011;3822;48.784;9.174;2022-12-05T12:26:11;2.33;;;2.10;;
7561;SDS011;3822;48.784;9.174;2022-12-05T12:29:07;4.33;;;2.27;;
7561;SDS011;3822;48.784;9.174;2022-12-05T12:32:28;3.80;;;2.90;;
7561;SDS011;3822;48.784;9.174;2022-12-05T12:37:57;2.70;;;2.10;;
7561;SDS011;3822;48.784;9.174;2022-12-05T12:46:38;4.23;;;2.70;;
7561;SDS011;3822;48.784;9.174;2022-12-05T12:52:21;2.60;;;2.17;;
7561;SDS011;3822;48.784;9.174;2022-12-05T13:00:41;6.67;;;4.50;;
7561;SDS011;3822;48.784;9.174;2022-12-05T13:03:51;10.77;;;5.87;;
7561;SDS011;3822;48.784;9.174;2022-12-05T13:07:12;8.10;;;5.20;;
7561;SDS011;3822;48.784;9.174;2022-12-05T13:09:53;11.83;;;6.67;;
7561;SDS011;3822;48.784;9.174;2022-12-05T13:12:30;9.43;;;6.03;;
7561;SDS011;3822;48.784;9.174;2022-12-05T13:18:06;9.43;;;5.83;;
7561;SDS011;3822;48.784;9.174;2022-12-05T13:20:41;11.40;;;7.00;;
7561;SDS011;3822;48.784;9.174;2022-12-05T13:23:12;10.87;;;6.33;;
7561;SDS011;3822;48.784;9.174;2022-12-05T13:25:43;15.70;;;6.03;;
7561;SDS011;3822;48.784;9.174;2022-12-05T13:28:29;11.40;;;6.90;;
7561;SDS011;3822;48.784;9.174;2022-12-05T13:31:18;9.43;;;5.77;;
7561;SDS011;3822;48.784;9.174;2022-12-05T13:36:55;11.87;;;7.40;;
7561;SDS011;3822;48.784;9.174;2022-12-05T13:39:49;13.70;;;8.10;;
7561;SDS011;3822;48.784;9.174;2022-12-05T13:42:36;11.83;;;6.77;;
7561;SDS011;3822;48.784;9.174;2022-12-05T13:47:39;9.57;;;5.80;;
7561;SDS011;3822;48.784;9.174;2022-12-05T13:53:01;9.97;;;6.63;;
7561;SDS011;3822;48.784;9.174;2022-12-05T13:55:36;15.47;;;8.47;;
7561;SDS011;3822;48.784;9.174;2022-12-05T14:00:45;11.40;;;7.27;;
7561;SDS011;3822;48.784;9.174;2022-12-05T14:03:16;12.63;;;8.00;;
7561;SDS011;3822;48.784;9.174;2022-12-05T14:06:12;12.37;;;7.63;;
7561;SDS011;3822;48.784;9.174;2022-12-05T14:17:31;8.30;;;6.13;;
7561;SDS011;3822;48.784;9.174;2022-12-05T14:20:29;9.97;;;6.37;;
7561;SDS011;3822;48.784;9.174;2022-12-05T14:29:15;10.57;;;6.73;;
7561;SDS011;3822;48.784;9.174;2022-12-05T14:32:18;11.83;;;7.27;;
7561;SDS011;3822;48.784;9.174;2022-12-05T14:48:36;12.90;;;7.60;;
7561;SDS011;3822;48.784;9.174;2022-12-05T14:53:56;13.80;;;8.33;;
7561;SDS011;3822;48.784;9.174;2022-12-05T14:56:34;13.30;;;7.73;;
7561;SDS011;3822;48.784;9.174;2022-12-05T15:01:49;14.00;;;7.50;;
7561;SDS011;3822;48.784;9.174;2022-12-05T15:04:40;11.93;;;8.23;;
7561;SDS011;3822;48.784;9.174;2022-12-05T15:07:16;10.70;;;7.47;;
7561;SDS011;3822;48.784;9.174;2022-12-05T15:12:31;9.20;;;6.50;;
7561;SDS011;3822;48.784;9.174;2022-12-05T15:15:19;9.03;;;6.27;;
7561;SDS011;3822;48.784;9.174;2022-12-05T15:21:20;13.80;;;8.57;;
7561;SDS011;3822;48.784;9.174;2022-12-05T15:24:00;13.20;;;8.50;;
7561;SDS011;3822;48.784;9.174;2022-12-05T15:26:46;11.80;;;7.30;;
7561;SDS011;3822;48.784;9.174;2022-12-05T15:31:58;10.70;;;6.57;;
7561;SDS011;3822;48.784;9.174;2022-12-05T15:37:42;11.03;;;6.70;;
7561;SDS011;3822;48.784;9.174;2022-12-05T15:40:22;9.23;;;7.03;;
7561;SDS011;3822;48.784;9.174;2022-12-05T15:42:55;10.67;;;7.50;;
7561;SDS011;3822;48.784;9.174;2022-12-05T15:45:23;12.00;;;7.03;;
7561;SDS011;3822;48.784;9.174;2022-12-05T15:47:55;13.57;;;7.97;;
7561;SDS011;3822;48.784;9.174;2022-12-05T15:50:32;14.37;;;8.53;;
7561;SDS011;3822;48.784;9.174;2022-12-05T15:58:53;11.87;;;6.80;;
7561;SDS011;3822;48.784;9.174;2022-12-05T16:01:42;19.60;;;7.70;;
7561;SDS011;3822;48.784;9.174;2022-12-05T16:04:39;11.33;;;7.87;;
7561;SDS011;3822;48.784;9.174;2022-12-05T16:07:12;12.63;;;7.47;;
7561;SDS011;3822;48.784;9.174;2022-12-05T16:15:51;9.90;;;6.37;;
7561;SDS011;3822;48.784;9.174;2022-12-05T16:18:29;15.83;;;6.93;;
7561;SDS011;3822;48.784;9.174;2022-12-05T16:20:57;10.33;;;7.23;;
7561;SDS011;3822;48.784;9.174;2022-12-05T16:23:33;15.63;;;7.30;;
7561;SDS011;3822;48.784;9.174;2022-12-05T16:28:37;14.57;;;6.73;;
7561;SDS011;3822;48.784;9.174;2022-12-05T16:31:04;13.93;;;7.97;;
7561;SDS011;3822;48.784;9.174;2022-12-05T16:33:31;13.57;;;8.40;;
7561;SDS011;3822;48.784;9.174;2022-12-05T16:36:07;13.83;;;7.50;;
7561;SDS011;3822;48.784;9.174;2022-12-05T16:38:36;18.00;;;10.00;;
7561;SDS011;3822;48.784;9.174;2022-12-05T16:41:05;13.67;;;7.90;;
7561;SDS011;3822;48.784;9.174;2022-12-05T16:48:39;12.90;;;7.47;;
7561;SDS011;3822;48.784;9.174;2022-12-05T16:53:42;13.17;;;7.57;;
7561;SDS011;3822;48.784;9.174;2022-12-05T16:58:52;11.80;;;6.97;;
7561;SDS011;3822;48.784;9.174;2022-12-05T17:01:23;15.97;;;7.33;;
7561;SDS011;3822;48.784;9.174;2022-12-05T17:03:53;12.77;;;6.80;;
7561;SDS011;3822;48.784;9.174;2022-12-05T17:06:22;11.23;;;7.27;;
7561;SDS011;3822;48.784;9.174;2022-12-05T17:08:52;11.87;;;7.27;;
7561;SDS011;3822;48.784;9.174;2022-12-05T17:11:20;13.17;;;7.20;;
7561;SDS011;3822;48.784;9.174;2022-12-05T17:13:52;13.00;;;8.33;;
7561;SDS011;3822;48.784;9.174;2022-12-05T17:16:20;16.03;;;8.17;;
7561;SDS011;3822;48.784;9.174;2022-12-05T17:18:47;8.80;;;6.50;;
7561;SDS011;3822;48.784;9.174;2022-12-05T17:21:18;11.57;;;7.30;;
7561;SDS011;3822;48.784;9.174;2022-12-05T17:23:48;12.13;;;6.70;;
7561;SDS011;3822;48.784;9.174;2022-12-05T17:26:16;12.20;;;7.23;;
7561;SDS011;3822;48.784;9.174;2022-12-05T17:28:45;10.33;;;6.70;;
7561;SDS011;3822;48.784;9.174;2022-12-05T17:31:13;12.97;;;7.23;;
7561;SDS011;3822;48.784;9.174;2022-12-05T17:33:42;11.37;;;7.13;;
7561;SDS011;3822;48.784;9.174;2022-12-05T17:36:09;13.60;;;7.43;;
7561;SDS011;3822;48.784;9.174;2022-12-05T17:38:37;11.20;;;7.40;;
7561;SDS011;3822;48.784;9.174;2022-12-05T17:41:04;12.63;;;7.43;;
7561;SDS011;3822;48.784;9.174;2022-12-05T17:43:31;15.47;;;8.17;;
7561;SDS011;3822;48.784;9.174;2022-12-05T17:45:58;10.43;;;6.83;;
7561;SDS011;3822;48.784;9.174;2022-12-05T17:48:25;11.57;;;7.00;;
7561;SDS011;3822;48.784;9.174;2022-12-05T17:50:52;10.23;;;7.13;;
7561;SDS011;3822;48.784;9.174;2022-12-05T17:53:22;10.80;;;7.00;;
7561;SDS011;3822;48.784;9.174;2022-12-05T17:55:49;11.03;;;7.50;;
7561;SDS011;3822;48.784;9.174;2022-12-05T17:58:16;13.50;;;7.13;;
7561;SDS011;3822;48.784;9.174;2022-12-05T18:00:43;11.73;;;7.20;;
7561;SDS011;3822;48.784;9.174;2022-12-05T18:03:13;12.40;;;7.20;;
7561;SDS011;3822;48.784;9.174;2022-12-05T18:05:42;12.27;;;6.90;;
7561;SDS011;3822;48.784;9.174;2022-12-05T18:08:10;11.17;;;7.63;;
7561;SDS011;3822;48.784;9.174;2022-12-05T18:10:39;11.50;;;7.97;;
7561;SDS011;3822;48.784;9.174;2022-12-05T18:13:08;9.57;;;6.60;;
7561;SDS011;3822;48.784;9.174;2022-12-05T18:15:35;11.10;;;6.87;;
7561;SDS011;3822;48.784;9.174;2022-12-05T18:18:02;12.93;;;7.53;;
7561;SDS011;3822;48.784;9.174;2022-12-05T18:20:33;10.53;;;7.03;;
7561;SDS011;3822;48.784;9.174;2022-12-05T18:23:00;17.73;;;7.30;;
7561;SDS011;3822;48.784;9.174;2022-12-05T18:25:27;14.90;;;7.90;;
7561;SDS011;3822;48.784;9.174;2022-12-05T18:27:57;12.10;;;7.27;;
7561;SDS011;3822;48.784;9.174;2022-12-05T18:30:23;11.50;;;7.40;;
7561;SDS011;3822;48.784;9.174;2022-12-05T18:32:50;11.03;;;7.17;;
7561;SDS011;3822;48.784;9.174;2022-12-05T18:35:17;12.00;;;7.53;;
7561;SDS011;3822;48.784;9.174;2022-12-05T18:37:43;9.90;;;6.53;;
7561;SDS011;3822;48.784;9.174;2022-12-05T18:40:10;13.40;;;8.07;;
7561;SDS011;3822;48.784;9.174;2022-12-05T18:42:37;12.57;;;7.70;;
7561;SDS011;3822;48.784;9.174;2022-12-05T18:45:04;13.57;;;7.90;;
7561;SDS011;3822;48.784;9.174;2022-12-05T18:47:31;13.50;;;8.20;;
7561;SDS011;3822;48.784;9.174;2022-12-05T18:49:58;11.83;;;7.10;;
7561;SDS011;3822;48.784;9.174;2022-12-05T18:52:25;14.37;;;7.70;;
7561;SDS011;3822;48.784;9.174;2022-12-05T18:54:52;15.33;;;8.20;;
7561;SDS011;3822;48.784;9.174;2022-12-05T18:57:18;12.23;;;7.93;;
7561;SDS011;3822;48.784;9.174;2022-12-05T18:59:45;15.23;;;8.40;;